createdAt,value
2019-05-17T00:04:26.990Z,9.73
2019-05-17T00:10:31.754Z,9.85
2019-05-17T00:16:37.473Z,9.83
2019-05-17T00:22:42.235Z,9.70
2019-05-17T00:28:47.034Z,9.66
2019-05-17T00:34:51.607Z,9.66
2019-05-17T00:40:56.547Z,9.75
2019-05-17T00:47:01.254Z,9.76
2019-05-17T00:53:07.359Z,9.75
2019-05-17T00:59:12.156Z,9.74
2019-05-17T01:05:17.267Z,9.67
2019-05-17T01:11:22.002Z,9.69
2019-05-17T01:17:27.130Z,9.72
2019-05-17T01:23:32.329Z,9.75
2019-05-17T01:29:36.876Z,9.76
2019-05-17T01:35:41.459Z,9.78
2019-05-17T01:41:46.846Z,10.06
2019-05-17T01:47:51.638Z,9.72
2019-05-17T01:53:57.354Z,9.71
2019-05-17T02:00:02.035Z,9.85
2019-05-17T02:06:07.454Z,9.67
2019-05-17T02:12:12.330Z,9.69
2019-05-17T02:18:17.383Z,9.59
2019-05-17T02:24:22.381Z,9.45
2019-05-17T02:30:27.340Z,9.30
2019-05-17T02:36:33.226Z,9.15
2019-05-17T02:42:38.080Z,9.04
2019-05-17T02:48:42.981Z,9.08
2019-05-17T02:54:47.738Z,9.05
2019-05-17T03:00:53.184Z,9.01
2019-05-17T03:06:58.102Z,8.91
2019-05-17T03:13:04.137Z,8.95
2019-05-17T03:19:08.870Z,8.86
2019-05-17T03:25:14.579Z,9.03
2019-05-17T03:31:25.673Z,8.93
2019-05-17T03:37:32.564Z,8.80
2019-05-17T03:43:35.112Z,8.79
2019-05-17T03:49:39.747Z,8.87
2019-05-17T03:55:44.648Z,8.92
2019-05-17T04:01:52.513Z,8.88
2019-05-17T04:07:55.779Z,8.91
2019-05-17T04:14:03.066Z,8.99
2019-05-17T04:20:09.634Z,9.08
2019-05-17T04:26:14.238Z,9.17
2019-05-17T04:32:18.827Z,9.18
2019-05-17T04:38:23.943Z,9.34
2019-05-17T04:44:28.661Z,9.33
2019-05-17T04:50:34.355Z,9.55
2019-05-17T04:56:38.899Z,9.63
2019-05-17T05:02:44.455Z,9.58
2019-05-17T05:08:49.102Z,9.46
2019-05-17T05:14:53.651Z,9.60
2019-05-17T05:20:58.280Z,9.58
2019-05-17T05:27:02.827Z,9.88
2019-05-17T05:33:07.377Z,10.16
2019-05-17T05:39:11.919Z,10.08
2019-05-17T05:45:17.271Z,9.95
2019-05-17T05:51:21.903Z,9.93
2019-05-17T05:57:26.434Z,10.08
2019-05-17T06:03:32.076Z,10.35
2019-05-17T06:09:36.819Z,10.33
2019-05-17T06:15:42.881Z,10.71
2019-05-17T06:21:47.661Z,10.79
2019-05-17T06:27:52.222Z,10.92
2019-05-17T06:33:56.857Z,11.13
2019-05-17T06:40:02.372Z,11.35
2019-05-17T06:46:07.215Z,11.35
2019-05-17T06:52:11.850Z,11.63
2019-05-17T06:58:16.420Z,11.62
2019-05-17T07:04:21.029Z,11.81
2019-05-17T07:10:25.721Z,12.08
2019-05-17T07:16:30.288Z,11.71
2019-05-17T07:22:34.993Z,11.85
2019-05-17T07:28:40.435Z,12.21
2019-05-17T07:34:45.245Z,12.53
2019-05-17T07:40:50.257Z,13.16
2019-05-17T07:46:55.543Z,13.76
2019-05-17T07:53:00.634Z,14.00
2019-05-17T07:59:05.512Z,14.41
2019-05-17T08:05:10.893Z,15.33
2019-05-17T08:11:15.489Z,16.11
2019-05-17T08:17:20.091Z,16.46
2019-05-17T08:23:24.713Z,16.20
2019-05-17T08:29:29.796Z,16.48
2019-05-17T08:35:34.515Z,16.40
2019-05-17T08:41:40.431Z,16.36
2019-05-17T08:47:45.275Z,15.82
2019-05-17T08:53:49.949Z,16.06
2019-05-17T08:59:54.831Z,16.52
2019-05-17T09:06:02.126Z,16.81
2019-05-17T09:12:06.081Z,16.68
2019-05-17T09:18:10.643Z,17.00
2019-05-17T09:24:15.266Z,16.44
2019-05-17T09:30:21.620Z,16.91
2019-05-17T09:36:33.367Z,17.84
2019-05-17T09:42:40.775Z,17.75
2019-05-17T09:48:46.929Z,17.74
2019-05-17T09:54:51.112Z,18.24
2019-05-17T10:00:55.965Z,18.94
2019-05-17T10:07:00.584Z,19.44
2019-05-17T10:13:05.341Z,19.86
2019-05-17T10:19:10.057Z,20.11
2019-05-17T10:25:15.547Z,19.17
2019-05-17T10:31:20.834Z,18.55
2019-05-17T10:37:25.984Z,18.59
2019-05-17T10:43:30.634Z,18.71
2019-05-17T10:49:36.538Z,18.91
2019-05-17T10:55:41.390Z,18.85
2019-05-17T11:01:46.106Z,18.22
2019-05-17T11:07:51.354Z,17.98
2019-05-17T11:13:58.993Z,17.69
2019-05-17T11:20:06.481Z,17.65
2019-05-17T11:26:11.362Z,17.74
2019-05-17T11:32:17.496Z,17.96
2019-05-17T11:38:22.444Z,17.72
2019-05-17T11:44:27.181Z,17.90
2019-05-17T11:50:32.457Z,17.90
2019-05-17T11:56:37.514Z,17.77
2019-05-17T12:02:43.803Z,17.75
2019-05-17T12:08:49.029Z,17.41
2019-05-17T12:14:53.968Z,17.62
2019-05-17T12:21:00.554Z,17.60
2019-05-17T12:27:07.622Z,17.47
2019-05-17T12:33:15.948Z,17.88
2019-05-17T12:39:20.765Z,18.48
2019-05-17T12:45:26.206Z,18.47
2019-05-17T12:51:33.031Z,18.28
2019-05-17T12:57:37.807Z,17.99
2019-05-17T13:03:42.542Z,17.93
2019-05-17T13:09:48.837Z,17.82
2019-05-17T13:15:53.519Z,17.71
2019-05-17T13:21:58.308Z,17.81
2019-05-17T13:28:03.761Z,17.86
2019-05-17T13:34:08.464Z,18.10
2019-05-17T13:40:15.298Z,18.00
2019-05-17T13:46:32.615Z,18.32
2019-05-17T13:52:28.476Z,17.93
2019-05-17T13:58:33.218Z,18.31
2019-05-17T14:04:38.513Z,18.40
2019-05-17T14:10:43.593Z,18.87
2019-05-17T14:16:49.213Z,18.33
2019-05-17T14:22:53.859Z,18.44
2019-05-17T14:28:58.519Z,18.48
2019-05-17T14:35:04.811Z,18.45
2019-05-17T14:41:09.854Z,18.69
2019-05-17T14:47:14.646Z,18.40
2019-05-17T14:53:19.299Z,18.69
2019-05-17T14:59:25.607Z,18.54
2019-05-17T15:05:31.189Z,18.27
2019-05-17T15:11:40.491Z,18.42
2019-05-17T15:17:45.194Z,18.33
2019-05-17T15:23:49.922Z,18.33
2019-05-17T15:29:54.583Z,18.64
2019-05-17T15:35:59.264Z,18.87
2019-05-17T15:42:03.974Z,18.80
2019-05-17T15:48:08.819Z,19.13
2019-05-17T15:54:16.626Z,18.83
2019-05-17T16:00:23.369Z,18.67
2019-05-17T16:06:28.037Z,18.64
2019-05-17T16:12:34.015Z,18.62
2019-05-17T16:18:43.119Z,18.20
2019-05-17T16:24:48.258Z,18.20
2019-05-17T16:30:53.016Z,18.09
2019-05-17T16:36:57.654Z,18.12
2019-05-17T16:43:17.048Z,18.01
2019-05-17T16:49:11.986Z,18.18
2019-05-17T16:55:20.330Z,18.06
2019-05-17T17:01:25.308Z,17.90
2019-05-17T17:07:30.096Z,17.97
2019-05-17T17:13:34.821Z,18.80
2019-05-17T17:19:39.622Z,19.84
2019-05-17T17:25:48.443Z,21.47
2019-05-17T17:31:53.229Z,20.38
2019-05-17T17:37:57.984Z,19.59
2019-05-17T17:44:06.762Z,22.46
2019-05-17T17:50:12.024Z,20.71
2019-05-17T17:56:16.931Z,19.16
2019-05-17T18:02:21.635Z,18.27
2019-05-17T18:08:26.382Z,17.44
2019-05-17T18:14:31.198Z,16.76
2019-05-17T18:20:35.971Z,16.43
2019-05-17T18:26:40.779Z,15.87
2019-05-17T18:32:46.252Z,15.46
2019-05-17T18:38:54.622Z,14.76
2019-05-17T18:44:59.279Z,14.42
2019-05-17T18:51:04.087Z,14.14
2019-05-17T18:57:10.345Z,13.94
2019-05-17T19:03:15.198Z,13.58
2019-05-17T19:09:19.837Z,13.47
2019-05-17T19:15:24.861Z,13.20
2019-05-17T19:21:29.446Z,12.88
2019-05-17T19:27:34.128Z,12.78
2019-05-17T19:33:38.679Z,12.75
2019-05-17T19:39:43.311Z,12.51
2019-05-17T19:45:47.941Z,12.29
2019-05-17T19:51:52.567Z,12.24
2019-05-17T19:57:57.137Z,11.99
2019-05-17T20:04:04.269Z,11.90
2019-05-17T20:10:11.632Z,12.04
2019-05-17T20:16:16.203Z,11.90
2019-05-17T20:22:20.795Z,12.02
2019-05-17T20:28:25.345Z,11.88
2019-05-17T20:34:29.990Z,11.96
2019-05-17T20:40:34.619Z,11.95
2019-05-17T20:46:39.188Z,11.76
2019-05-17T20:52:43.882Z,11.75
2019-05-17T20:58:48.505Z,11.93
2019-05-17T21:04:53.058Z,12.13
2019-05-17T21:10:57.710Z,12.23
2019-05-17T21:17:02.262Z,12.17
2019-05-17T21:23:06.833Z,12.23
2019-05-17T21:29:11.400Z,12.19
2019-05-17T21:35:17.672Z,12.15
2019-05-17T21:41:22.241Z,12.25
2019-05-17T21:47:26.927Z,12.52
2019-05-17T21:53:31.513Z,12.95
2019-05-17T21:59:36.087Z,12.99
2019-05-17T22:05:40.719Z,12.93
2019-05-17T22:11:46.937Z,12.66
2019-05-17T22:17:51.481Z,12.41
2019-05-17T22:23:56.179Z,12.25
2019-05-17T22:30:00.725Z,12.06
2019-05-17T22:36:05.387Z,11.63
2019-05-17T22:42:11.512Z,11.41
2019-05-17T22:48:16.059Z,11.16
2019-05-17T22:54:20.622Z,11.06
2019-05-17T23:00:25.266Z,10.82
2019-05-17T23:06:29.902Z,10.49
2019-05-17T23:12:34.466Z,10.12
2019-05-17T23:18:39.124Z,10.02
2019-05-17T23:24:43.761Z,9.96
2019-05-17T23:30:48.289Z,9.78
2019-05-17T23:36:52.934Z,9.56
2019-05-17T23:42:57.497Z,9.52
2019-05-17T23:49:02.208Z,9.22
2019-05-17T23:55:08.186Z,9.26
